Anthony, FL

5:43 PM EDT on March 27, 2015 (GMT -0400)
K2ADA Radio Ranch | | Change Station
CLOSE
Current Station
Personal Weather Station
Location: Anthony, FL
Elevation: 102 ft
Nearby Weather Stations

Elev 102 ft 29.33 °N, 82.08 °W | Updated 40 seconds ago

Mostly Cloudy
Mostly Cloudy
68.5 °F
Feels Like 68.5 °F
N
0.0
Wind Variable Wind from WSW
Gusts 5.0 mph

Today
High -- | Low -- °F
--% Chance of Precip.
Yesterday
High -- | Low -- °F
Precip. -- in
7:24 AM 7:43 PM
First Quarter, 56% visible
Pressure 29.79 in
Visibility 5.0 miles
Clouds Scattered Clouds 900 ft
Mostly Cloudy 1600 ft
Dew Point 66 °F
Humidity 91%
Rainfall 0.36 in
Snow Depth Not available.
UV 3 out of 12
Pollen 8.40 out of 12
Air Quality Not available.
Flu Activity Not available.
METAR KOCF 272050Z 24006KT 5SM -RA BR SCT009 BKN016 19/17 A2979

More Conditions Fewer Conditions

Pressure 29.79 in
Visibility 5.0 miles
Clouds Scattered Clouds 900 ft
Mostly Cloudy 1600 ft
Dew Point 66 °F
Humidity 91%
Rainfall 0.36 in
Snow Depth Not available.
UV 3 out of 12
Pollen 8.40 out of 12
Air Quality Not available.
Flu Activity Not available.
METAR KOCF 272050Z 24006KT 5SM -RA BR SCT009 BKN016 19/17 A2979

More Conditions Fewer Conditions

10-Day Weather Forecast

Almanac

Astronomy

Mar. 27, 2015 Rise Set
Actual Time
Civil Twilight
Nautical Twilight
Astronomical Twilight
Moon
Length of Visible Light
Length of Day
Tomorrow will be .
, % of the Moon is Illuminated

Today's Extremes

State Highs State Lows

Community

WunderPhotos

Upload Photos

1,808,834 photos uploaded!

WunderBlogs® & News

Nearby

Air Quality

  Air Quality AQ Index Pollutant
Not available.

Snow Depth

Station Depth Elevation

Earthquake Activity

City Distance Mag. Time & Date
Minimum magnitude displayed is 2.5.

Coastal Water Temperatures

Place Temperature

Stations

Nearby Weather Stations

Station Location Temp. Windchill Dew Point Humidity Wind Precip. Elev Updated Type